Time;durP1;ratioP1;P1;durP2;ratioP2;P2;SDS_P1;SDS_P2;PMS_P1;PMS_P2;Temp;Humidity;BMP_temperature;BMP_pressure;BME280_temperature;BME280_humidity;BME280_pressure;Samples;Min_cycle;Max_cycle;Signal;HPM_P1;HPM_P2
2022/12/16 00:01:42;;;;;;;18.50;7.60;;;;;;;-2.26;92.42;99124.50;5068772;28;20102;-44
2022/12/16 00:04:08;;;;;;;20.52;8.38;;;;;;;-2.21;92.29;99138.13;5070497;28;20046;-45
2022/12/16 00:06:36;;;;;;;19.63;8.55;;;;;;;-2.17;92.23;99124.56;5078194;28;20031;-44
2022/12/16 00:09:03;;;;;;;26.63;7.20;;;;;;;-2.11;92.16;99118.69;5085879;28;20048;-46
2022/12/16 00:11:30;;;;;;;17.70;7.93;;;;;;;-2.15;92.30;99109.31;5068907;28;20160;-44
2022/12/16 00:13:57;;;;;;;14.57;7.05;;;;;;;-2.33;92.95;99073.53;5102901;28;20035;-46
2022/12/16 00:16:23;;;;;;;13.90;6.78;;;;;;;-2.12;93.20;99099.13;5103348;28;20427;-43
2022/12/16 00:18:49;;;;;;;20.35;8.40;;;;;;;-2.07;93.13;99106.81;5094100;28;20043;-44
2022/12/16 00:21:17;;;;;;;13.73;6.80;;;;;;;-2.05;92.93;99117.88;5110709;28;20396;-48
2022/12/16 00:23:43;;;;;;;18.27;7.63;;;;;;;-2.10;92.95;99101.72;5072645;28;20052;-45
2022/12/16 00:26:10;;;;;;;18.67;8.18;;;;;;;-2.09;92.88;99100.88;5083342;28;20044;-46
2022/12/16 00:28:37;;;;;;;11.57;5.43;;;;;;;-2.05;92.65;99093.25;5082736;28;20036;-44
2022/12/16 00:31:03;;;;;;;18.05;7.93;;;;;;;-2.05;92.17;99094.94;5107691;28;20055;-44
2022/12/16 00:33:30;;;;;;;15.70;8.05;;;;;;;-2.07;92.17;99092.38;5098759;28;20035;-45
2022/12/16 00:35:55;;;;;;;18.60;8.05;;;;;;;-2.13;92.03;99074.50;5109093;28;20126;-44
2022/12/16 00:38:23;;;;;;;17.90;7.22;;;;;;;-2.02;92.23;99085.63;5100186;28;20123;-46
2022/12/16 00:40:49;;;;;;;22.92;8.45;;;;;;;-2.02;92.03;99088.16;5090069;28;20425;-47
2022/12/16 00:43:15;;;;;;;19.95;7.70;;;;;;;-2.21;91.87;99043.94;5088613;28;20050;-45
2022/12/16 00:45:41;;;;;;;16.75;7.40;;;;;;;-2.16;91.72;99062.63;5083121;28;20447;-48
2022/12/16 00:48:07;;;;;;;16.00;7.95;;;;;;;-1.98;91.53;99089.03;5092275;28;20044;-44
2022/12/16 00:50:34;;;;;;;17.38;7.88;;;;;;;-2.17;91.44;99072.81;5096171;28;20063;-45
2022/12/16 00:53:00;;;;;;;13.27;6.78;;;;;;;-1.94;91.18;99081.44;5109043;28;20039;-43
2022/12/16 00:55:26;;;;;;;14.18;6.30;;;;;;;-1.89;91.17;99084.88;5091528;28;20043;-47
2022/12/16 00:57:52;;;;;;;15.57;7.05;;;;;;;-1.87;91.01;99100.13;5088600;28;20056;-48
2022/12/16 01:00:18;;;;;;;14.90;7.15;;;;;;;-1.90;91.45;99097.59;5117950;27;20040;-45
2022/12/16 01:02:47;;;;;;;17.35;7.32;;;;;;;-1.87;91.79;99095.03;5089523;28;20070;-46
2022/12/16 01:05:15;;;;;;;17.10;7.20;;;;;;;-1.83;91.84;99102.72;5090074;28;20051;-46
2022/12/16 01:07:41;;;;;;;13.57;5.97;;;;;;;-1.85;91.60;99091.69;5109969;28;20035;-48
2022/12/16 01:10:08;;;;;;;11.60;6.05;;;;;;;-1.87;91.46;99083.16;5099691;28;20043;-46
2022/12/16 01:12:35;;;;;;;8.90;4.22;;;;;;;-1.84;91.62;99105.28;5105955;28;20070;-43
2022/12/16 01:15:01;;;;;;;16.95;7.07;;;;;;;-1.83;91.36;99087.41;5095916;28;20423;-45
2022/12/16 01:17:29;;;;;;;13.87;6.63;;;;;;;-1.80;91.16;99104.44;5080845;28;20072;-47
2022/12/16 01:19:55;;;;;;;9.50;4.13;;;;;;;-1.83;90.81;99102.72;5081570;28;20035;-46
2022/12/16 01:22:22;;;;;;;17.50;6.53;;;;;;;-1.82;90.59;99096.78;5102611;28;20039;-47
2022/12/16 01:24:48;;;;;;;14.70;5.68;;;;;;;-1.81;90.50;99100.19;5108585;28;20042;-45
2022/12/16 01:27:15;;;;;;;13.57;6.40;;;;;;;-2.19;90.31;99049.00;5090065;28;20039;-45
2022/12/16 01:29:41;;;;;;;12.93;5.38;;;;;;;-1.79;90.15;99103.59;5078854;28;20138;-46
2022/12/16 01:32:11;;;;;;;13.52;6.40;;;;;;;-1.80;90.03;99102.75;5088016;28;20536;-45
2022/12/16 01:34:37;;;;;;;10.70;4.97;;;;;;;-1.73;89.93;99104.47;5088170;28;20047;-45
2022/12/16 01:37:03;;;;;;;17.15;7.35;;;;;;;-1.76;89.78;99101.06;5076659;28;20043;-47
2022/12/16 01:39:29;;;;;;;14.75;7.15;;;;;;;-1.75;89.67;99106.16;5100136;28;20048;-43
2022/12/16 01:41:55;;;;;;;13.68;6.03;;;;;;;-1.71;90.27;99105.34;5094652;28;20036;-44
2022/12/16 01:44:24;;;;;;;10.23;5.40;;;;;;;-1.72;89.83;99100.22;5078951;28;20666;-44
2022/12/16 01:46:56;;;;;;;10.82;5.43;;;;;;;-1.91;90.01;99066.16;5080330;28;20040;-47
2022/12/16 01:49:33;;;;;;;14.18;5.60;;;;;;;-1.65;89.72;99108.75;5055423;28;20131;-44
2022/12/16 01:52:02;;;;;;;11.63;5.10;;;;;;;-1.66;89.84;99096.84;5067634;28;20571;-45
2022/12/16 01:54:32;;;;;;;10.65;5.35;;;;;;;-1.63;89.72;99102.84;5079488;28;20142;-44
2022/12/16 01:57:19;;;;;;;5.43;3.00;;;;;;;-1.65;89.65;99091.78;5076557;28;20062;-48
2022/12/16 01:59:47;;;;;;;6.60;3.15;;;;;;;-1.79;89.88;99086.63;5094526;28;20097;-45
2022/12/16 02:02:13;;;;;;;11.65;5.72;;;;;;;-1.59;89.74;99109.66;5090398;28;20036;-44
2022/12/16 02:05:19;;;;;;;11.55;5.30;;;;;;;-1.60;89.62;99107.06;5087449;28;20554;-45
2022/12/16 02:07:25;;;;;;;9.38;3.92;;;;;;;-1.61;89.51;99115.56;5112167;28;20406;-47
2022/12/16 02:09:52;;;;;;;9.65;4.20;;;;;;;-1.83;89.86;99079.78;5101124;28;20032;-46
2022/12/16 02:12:49;;;;;;;8.25;4.07;;;;;;;-1.61;90.13;99106.22;5103184;28;20047;-47
2022/12/16 02:15:35;;;;;;;13.18;5.80;;;;;;;-1.59;90.17;99129.19;5112153;28;20166;-45
2022/12/16 02:18:16;;;;;;;12.63;4.97;;;;;;;-1.63;90.31;99114.72;5069825;28;20434;-44
2022/12/16 02:21:00;;;;;;;12.38;5.82;;;;;;;-1.59;90.37;99126.63;5089283;28;20040;-46
2022/12/16 02:23:53;;;;;;;6.22;3.67;;;;;;;-1.60;90.27;99120.69;5096166;28;20122;-45
2022/12/16 02:26:34;;;;;;;12.93;4.43;;;;;;;-1.60;90.14;99120.69;5110019;28;20035;-45
2022/12/16 02:29:24;;;;;;;6.35;2.58;;;;;;;-1.56;89.87;99129.19;5111596;28;20036;-45
2022/12/16 02:32:10;;;;;;;;;;;;;;;-1.59;89.88;99124.09;5075064;28;20179;-47
2022/12/16 02:34:36;;;;;;;15.55;6.03;;;;;;;-1.63;89.95;99112.19;5080531;28;19916;-47
2022/12/16 02:37:16;;;;;;;10.60;4.55;;;;;;;-1.57;90.37;99120.69;5110699;28;20038;-47
2022/12/16 02:39:49;;;;;;;10.45;5.63;;;;;;;-1.84;90.06;99078.09;5107010;28;20066;-45
2022/12/16 02:42:16;;;;;;;8.23;3.30;;;;;;;-1.56;90.33;99122.38;5093722;28;20058;-46
2022/12/16 02:44:56;;;;;;;6.75;3.83;;;;;;;-1.52;90.27;99134.31;5090829;28;20048;-46
2022/12/16 02:47:23;;;;;;;12.35;6.40;;;;;;;-1.55;90.34;99141.94;5090981;28;20153;-44
2022/12/16 02:49:51;;;;;;;6.35;3.35;;;;;;;-1.53;90.14;99116.47;5099415;28;20044;-45
2022/12/16 02:52:20;;;;;;;14.75;6.05;;;;;;;-1.71;90.27;99095.13;5090776;28;20092;-47
2022/12/16 02:54:48;;;;;;;11.13;4.65;;;;;;;-1.67;90.26;99088.34;5091958;28;20192;-45
2022/12/16 02:57:28;;;;;;;13.20;5.95;;;;;;;-1.68;90.27;99089.22;5109143;28;20526;-47
2022/12/16 03:00:02;;;;;;;11.60;5.18;;;;;;;-1.49;90.22;99120.72;5107507;28;20847;-48
2022/12/16 03:02:51;;;;;;;10.65;4.97;;;;;;;-1.50;90.40;99114.78;5080836;28;20590;-50
2022/12/16 03:05:25;;;;;;;11.65;5.25;;;;;;;-1.50;90.25;99121.56;5070189;28;20143;-45
2022/12/16 03:07:52;;;;;;;7.90;5.00;;;;;;;-1.49;90.48;99113.94;5070269;28;20033;-45
2022/12/16 03:10:20;;;;;;;6.40;3.88;;;;;;;-1.44;90.45;99134.34;5077768;28;20036;-44
2022/12/16 03:12:46;;;;;;;13.90;6.03;;;;;;;-1.43;90.77;99134.34;5088387;28;20036;-44
2022/12/16 03:15:16;;;;;;;10.38;5.70;;;;;;;-1.46;90.73;99149.63;5106534;28;20119;-47
2022/12/16 03:17:44;;;;;;;12.88;5.85;;;;;;;-1.48;91.18;99137.72;5088749;28;20048;-46
2022/12/16 03:20:41;;;;;;;6.93;3.38;;;;;;;-1.44;91.82;99152.19;5073755;28;20066;-44
2022/12/16 03:23:12;;;;;;;14.57;6.68;;;;;;;-1.43;91.81;99146.25;5072876;28;20075;-44
2022/12/16 03:25:41;;;;;;;10.88;6.15;;;;;;;-1.75;92.16;99077.28;5098079;28;20088;-44
2022/12/16 03:28:25;;;;;;;10.60;4.50;;;;;;;-1.40;91.85;99146.25;5093854;28;20036;-45
2022/12/16 03:31:00;;;;;;;10.05;5.07;;;;;;;-1.39;91.74;99148.81;5102554;28;20032;-45
2022/12/16 03:33:36;;;;;;;11.63;6.32;;;;;;;-1.62;91.70;99109.63;5090196;28;20043;-50
2022/12/16 03:36:22;;;;;;;11.02;4.68;;;;;;;-1.37;91.60;99153.94;5091499;28;20114;-45
2022/12/16 03:38:49;;;;;;;11.77;6.65;;;;;;;-1.58;91.49;99125.78;5067081;28;20036;-48
2022/12/16 03:41:16;;;;;;;10.75;4.57;;;;;;;-1.55;91.86;99136.84;5081198;28;20071;-44
2022/12/16 03:43:42;;;;;;;7.32;4.07;;;;;;;-1.57;91.57;99140.25;5095069;28;20032;-45
2022/12/16 03:46:08;;;;;;;10.25;4.93;;;;;;;-1.60;91.84;99130.00;5109453;28;20074;-44
2022/12/16 03:48:34;;;;;;;12.75;6.53;;;;;;;-1.37;92.32;99166.69;5072351;28;20187;-44
2022/12/16 03:51:01;;;;;;;7.90;4.55;;;;;;;-1.32;92.56;99181.16;5100079;28;20036;-44
2022/12/16 03:53:27;;;;;;;8.10;4.70;;;;;;;-1.37;92.33;99182.84;5094827;28;20032;-45
2022/12/16 03:55:53;;;;;;;12.38;5.55;;;;;;;-1.36;92.84;99173.50;5108481;28;20571;-43
2022/12/16 03:58:19;;;;;;;13.43;6.80;;;;;;;-1.35;93.03;99178.56;5104142;28;20102;-49
2022/12/16 04:00:45;;;;;;;11.38;5.80;;;;;;;-1.55;93.11;99147.03;5104983;28;20476;-46
2022/12/16 04:03:11;;;;;;;7.80;4.07;;;;;;;-1.32;93.50;99200.69;5071488;28;20130;-49
2022/12/16 04:05:37;;;;;;;12.15;6.15;;;;;;;-1.32;93.20;99190.50;5089368;28;20118;-44
2022/12/16 04:08:03;;;;;;;11.38;5.45;;;;;;;-1.29;93.50;99206.66;5091736;28;20040;-48
2022/12/16 04:24:18;;;;;;;12.80;5.38;;;;;;;-1.33;92.96;99235.53;5069888;28;20537;-46
2022/12/16 04:29:30;;;;;;;13.40;5.00;;;;;;;-1.47;93.48;99213.38;5110590;28;20040;-46
2022/12/16 04:31:56;;;;;;;9.57;5.10;;;;;;;-1.27;93.50;99244.91;5104178;28;20787;-43
2022/12/16 04:34:25;;;;;;;11.82;5.93;;;;;;;-1.27;93.37;99249.16;5092409;28;20078;-46
